Terminal Aerodrome Forecast
Issued by NWS Glasgow, MT

Home | Current Version | Previous Version | Text Only | Print | Product List | Glossary On
Versions: 1 2 3 4 5 6 7 8 9 10 11 12 13 14 15 16 17
000
FTUS45 KGGW 241700
TAFGGW
TAF
KGGW 241727Z 2418/2518 30012KT P6SM BKN070
     FM250300 13006KT P6SM BKN050
     FM251100 14008KT 3SM -SN BR BKN010
     FM251700 31018KT P6SM VCSH BKN015=

USA.gov is the U.S. government's official web portal to all federal, state and local government web resources and services.